Time;durP1;ratioP1;P1;durP2;ratioP2;P2;SDS_P1;SDS_P2;PMS_P1;PMS_P2;Temp;Humidity;BMP_temperature;BMP_pressure;BME280_temperature;BME280_humidity;BME280_pressure;Samples;Min_cycle;Max_cycle;Signal;HPM_P1;HPM_P2
2023/03/15 00:01:09;;;;;;;5.67;0.80;;;2.40;99.90;;;;;;5097848;28;20484;-76
2023/03/15 00:03:38;;;;;;;4.85;0.93;;;2.30;99.90;;;;;;5097647;28;20059;-79
2023/03/15 00:06:04;;;;;;;5.03;0.80;;;2.30;99.90;;;;;;5096956;28;20056;-74
2023/03/15 00:08:33;;;;;;;5.93;0.80;;;2.30;99.90;;;;;;5080602;28;20143;-81
2023/03/15 00:10:59;;;;;;;3.97;0.70;;;2.30;99.90;;;;;;5080351;28;20067;-79
2023/03/15 00:13:25;;;;;;;6.80;0.97;;;2.30;99.90;;;;;;5115357;28;20500;-76
2023/03/15 00:15:56;;;;;;;3.95;0.60;;;2.30;99.90;;;;;;5097259;28;20051;-78
2023/03/15 00:18:22;;;;;;;5.85;1.42;;;2.20;99.90;;;;;;5115890;28;20050;-80
2023/03/15 00:20:48;;;;;;;10.02;1.10;;;2.20;99.90;;;;;;5080349;28;20043;-79
2023/03/15 00:23:14;;;;;;;5.10;0.75;;;2.20;99.90;;;;;;5115496;28;20048;-75
2023/03/15 00:25:44;;;;;;;9.93;0.80;;;2.20;99.90;;;;;;5097421;28;20445;-74
2023/03/15 00:28:10;;;;;;;6.68;0.63;;;2.20;99.90;;;;;;5097715;28;20042;-76
2023/03/15 00:30:36;;;;;;;5.75;0.80;;;2.20;99.90;;;;;;5098442;28;20148;-77
2023/03/15 00:33:04;;;;;;;5.40;1.13;;;2.20;99.90;;;;;;5080967;28;20083;-76
2023/03/15 00:35:31;;;;;;;6.72;1.10;;;2.10;99.90;;;;;;5097627;28;20050;-78
2023/03/15 00:37:56;;;;;;;6.80;1.40;;;2.10;99.90;;;;;;5115349;28;20047;-75
2023/03/15 00:40:23;;;;;;;7.97;0.90;;;2.10;99.90;;;;;;5115281;28;20366;-75
2023/03/15 00:42:49;;;;;;;10.25;0.80;;;2.10;99.90;;;;;;5115976;28;20082;-76
2023/03/15 00:45:20;;;;;;;12.43;0.80;;;2.10;99.90;;;;;;5098357;28;20043;-79
2023/03/15 00:47:53;;;;;;;5.50;0.70;;;2.20;99.90;;;;;;5119432;28;20423;-79
2023/03/15 00:50:21;;;;;;;11.32;0.82;;;2.20;99.90;;;;;;5098659;28;20041;-76
2023/03/15 00:52:47;;;;;;;9.85;0.98;;;2.30;99.90;;;;;;5099239;28;20047;-78
2023/03/15 00:55:15;;;;;;;7.90;0.82;;;2.30;99.90;;;;;;5116803;28;20047;-80
2023/03/15 00:57:43;;;;;;;6.80;0.70;;;2.20;99.90;;;;;;5116426;28;20488;-79
2023/03/15 01:00:18;;;;;;;8.93;1.00;;;2.10;99.90;;;;;;5097607;28;20055;-77
2023/03/15 01:02:44;;;;;;;4.78;0.70;;;2.10;99.90;;;;;;5096872;28;20176;-80
2023/03/15 01:05:10;;;;;;;8.35;0.80;;;2.10;99.90;;;;;;5076504;28;20126;-78
2023/03/15 01:07:36;;;;;;;5.57;0.52;;;2.10;99.90;;;;;;5094506;28;20061;-78
2023/03/15 01:10:04;;;;;;;5.03;0.90;;;2.00;99.90;;;;;;5092859;28;20531;-79
2023/03/15 01:12:32;;;;;;;5.55;0.93;;;2.00;99.90;;;;;;5093426;28;20196;-78
2023/03/15 01:14:58;;;;;;;6.18;0.70;;;2.00;99.90;;;;;;5092592;28;20127;-80
2023/03/15 01:17:24;;;;;;;9.07;0.80;;;1.80;99.90;;;;;;5092898;28;20040;-78
2023/03/15 01:19:53;;;;;;;4.57;0.68;;;1.70;99.90;;;;;;5093952;28;20189;-79
2023/03/15 01:22:19;;;;;;;9.13;1.23;;;1.80;99.90;;;;;;5093890;28;20543;-79
2023/03/15 01:24:45;;;;;;;7.40;0.98;;;1.70;99.90;;;;;;5076655;28;20051;-79
2023/03/15 01:27:10;;;;;;;8.68;0.98;;;1.70;99.90;;;;;;5094037;28;20449;-80
2023/03/15 01:29:36;;;;;;;8.30;0.60;;;1.70;99.90;;;;;;5075776;28;20101;-82
2023/03/15 01:32:02;;;;;;;9.02;1.20;;;1.50;99.90;;;;;;5093676;28;20050;-78
2023/03/15 01:34:27;;;;;;;6.95;1.02;;;1.50;99.90;;;;;;5075780;28;20526;-79
2023/03/15 01:36:53;;;;;;;8.50;1.10;;;1.40;99.90;;;;;;5092351;28;20044;-79
2023/03/15 01:39:20;;;;;;;9.60;0.73;;;1.50;99.90;;;;;;5092543;28;20051;-79
2023/03/15 01:41:46;;;;;;;8.90;0.82;;;1.40;99.90;;;;;;5093481;28;20044;-79
2023/03/15 01:44:17;;;;;;;9.30;0.63;;;1.50;99.90;;;;;;5093142;28;20387;-77
2023/03/15 01:46:42;;;;;;;9.98;0.98;;;1.50;99.90;;;;;;5094291;28;20372;-78
2023/03/15 01:49:31;;;;;;;12.30;1.15;;;1.50;99.90;;;;;;5078776;28;20051;-78
2023/03/15 01:52:20;;;;;;;9.65;0.70;;;1.40;99.90;;;;;;5097514;28;20051;-80
2023/03/15 01:55:13;;;;;;;9.38;1.02;;;1.40;99.90;;;;;;5097451;28;20044;-80
2023/03/15 01:57:54;;;;;;;14.10;0.88;;;1.50;99.90;;;;;;5096712;28;20512;-79
2023/03/15 02:00:20;;;;;;;11.38;0.80;;;1.50;99.90;;;;;;5097585;28;20040;-80
2023/03/15 02:02:49;;;;;;;11.95;0.98;;;1.50;99.90;;;;;;5097800;28;20063;-80
2023/03/15 02:05:25;;;;;;;12.57;0.60;;;1.40;99.90;;;;;;5103764;28;20067;-80
2023/03/15 02:07:53;;;;;;;10.50;0.60;;;1.40;99.90;;;;;;5100050;28;20056;-79
2023/03/15 02:10:39;;;;;;;12.95;1.10;;;1.50;99.90;;;;;;5116857;28;20351;-79
2023/03/15 02:13:06;;;;;;;7.65;0.80;;;1.40;99.90;;;;;;5099925;28;20044;-79
2023/03/15 02:15:32;;;;;;;24.48;1.20;;;1.40;99.90;;;;;;5099012;28;20053;-79
2023/03/15 02:17:58;;;;;;;13.13;1.27;;;1.40;99.90;;;;;;5117087;28;20118;-79
2023/03/15 02:20:26;;;;;;;12.85;1.17;;;1.40;99.90;;;;;;5082586;28;20524;-79
2023/03/15 02:23:05;;;;;;;13.00;1.00;;;1.40;99.90;;;;;;5117445;28;20122;-81
2023/03/15 02:25:55;;;;;;;8.32;1.13;;;1.30;99.90;;;;;;5117911;28;20391;-77
2023/03/15 02:28:22;;;;;;;8.30;0.93;;;1.30;99.90;;;;;;5099895;28;20081;-78
2023/03/15 02:30:48;;;;;;;14.90;1.27;;;1.30;99.90;;;;;;5099096;28;20049;-80
2023/03/15 02:33:28;;;;;;;13.57;0.90;;;1.20;99.90;;;;;;5082123;28;20329;-81
2023/03/15 02:35:55;;;;;;;5.95;0.85;;;1.20;99.90;;;;;;5117198;28;20039;-79
2023/03/15 02:38:21;;;;;;;16.63;0.98;;;1.20;99.90;;;;;;5099502;28;20383;-82
2023/03/15 02:40:51;;;;;;;13.27;0.80;;;1.10;99.90;;;;;;5098969;28;20047;-80
2023/03/15 02:43:24;;;;;;;7.55;0.50;;;1.10;99.90;;;;;;5099232;28;20134;-79
2023/03/15 02:45:49;;;;;;;15.98;0.90;;;1.00;99.90;;;;;;5117064;28;20096;-78
2023/03/15 02:48:16;;;;;;;10.60;1.05;;;1.00;99.90;;;;;;5116877;28;20043;-79
2023/03/15 02:50:42;;;;;;;17.38;1.15;;;1.00;99.90;;;;;;5116972;28;20051;-79
2023/03/15 02:53:08;;;;;;;8.70;0.80;;;0.90;99.90;;;;;;5082334;28;20127;-80
2023/03/15 02:55:34;;;;;;;11.70;1.40;;;1.20;99.90;;;;;;5116882;28;20047;-78
2023/03/15 02:58:01;;;;;;;15.02;1.13;;;1.30;99.90;;;;;;5098241;28;20461;-79
2023/03/15 03:00:27;;;;;;;18.00;0.80;;;1.70;99.90;;;;;;5117004;28;20387;-78
2023/03/15 03:02:54;;;;;;;16.60;1.00;;;1.80;99.90;;;;;;5099480;28;20085;-78
2023/03/15 03:05:20;;;;;;;19.15;1.10;;;1.70;99.90;;;;;;5098352;28;20051;-78
2023/03/15 03:07:47;;;;;;;23.70;0.80;;;1.70;99.90;;;;;;5098526;28;20403;-80
2023/03/15 03:10:17;;;;;;;16.45;1.17;;;1.70;99.90;;;;;;5081455;28;20556;-80
2023/03/15 03:12:43;;;;;;;12.32;1.10;;;1.60;99.90;;;;;;5098513;28;20044;-79
2023/03/15 03:15:10;;;;;;;11.55;1.27;;;1.50;99.90;;;;;;5099251;28;20340;-79
2023/03/15 03:17:39;;;;;;;20.98;1.40;;;1.50;99.90;;;;;;5098159;28;20511;-79
2023/03/15 03:20:09;;;;;;;12.57;1.08;;;1.40;99.90;;;;;;5098324;28;20046;-80
2023/03/15 03:22:36;;;;;;;11.82;1.52;;;1.30;99.90;;;;;;5098930;28;20086;-80
2023/03/15 03:25:03;;;;;;;9.98;0.70;;;1.20;99.90;;;;;;5098122;28;20040;-79
2023/03/15 03:27:29;;;;;;;15.23;0.80;;;1.20;99.90;;;;;;5116650;28;20043;-79
2023/03/15 03:29:54;;;;;;;9.95;0.75;;;1.20;99.90;;;;;;5098291;28;20043;-79
2023/03/15 03:32:20;;;;;;;11.93;1.35;;;1.20;99.90;;;;;;5081132;28;20087;-80
2023/03/15 03:34:49;;;;;;;22.15;2.03;;;1.20;99.90;;;;;;5097562;28;20499;-79
2023/03/15 03:37:19;;;;;;;18.15;0.93;;;1.20;99.90;;;;;;5115956;28;20035;-81
2023/03/15 03:39:45;;;;;;;20.52;1.05;;;1.20;99.90;;;;;;5097674;28;20052;-80
2023/03/15 03:42:11;;;;;;;11.18;0.70;;;1.10;99.90;;;;;;5097747;28;20083;-80
2023/03/15 03:44:36;;;;;;;21.08;0.90;;;1.00;99.90;;;;;;5116556;28;20054;-80
2023/03/15 03:47:03;;;;;;;16.52;1.05;;;0.90;99.90;;;;;;5116451;28;20044;-79
2023/03/15 03:49:29;;;;;;;16.73;1.30;;;0.80;99.90;;;;;;5098536;28;20428;-80
2023/03/15 03:51:54;;;;;;;7.35;0.47;;;0.80;99.90;;;;;;5115851;28;20112;-79
2023/03/15 03:54:20;;;;;;;16.20;0.93;;;0.70;99.90;;;;;;5097674;28;20044;-79
2023/03/15 03:56:47;;;;;;;12.32;1.33;;;0.50;99.90;;;;;;5097513;28;20056;-80
2023/03/15 03:59:13;;;;;;;6.03;0.77;;;0.40;99.90;;;;;;5097409;28;20504;-81
2023/03/15 04:01:38;;;;;;;5.28;0.80;;;0.30;99.90;;;;;;5115538;28;20061;-80
2023/03/15 04:04:04;;;;;;;11.98;1.10;;;0.20;99.90;;;;;;5115765;28;20043;-81
2023/03/15 04:06:30;;;;;;;13.25;1.17;;;0.20;99.90;;;;;;5115740;28;20475;-80
2023/03/15 04:08:56;;;;;;;8.60;1.27;;;0.00;99.90;;;;;;5097186;28;20055;-79
2023/03/15 04:11:25;;;;;;;11.40;0.85;;;0.00;99.90;;;;;;5096206;28;20054;-80
2023/03/15 04:13:55;;;;;;;13.40;0.77;;;-0.10;99.90;;;;;;5115681;28;20047;-81
2023/03/15 04:16:20;;;;;;;10.32;1.00;;;-0.10;99.90;;;;;;5096828;28;20501;-81
2023/03/15 04:18:46;;;;;;;8.05;0.60;;;-0.10;99.90;;;;;;5081067;28;20047;-80
2023/03/15 04:21:12;;;;;;;12.77;0.68;;;-0.10;99.90;;;;;;5080434;28;20134;-80
2023/03/15 04:23:38;;;;;;;8.77;0.47;;;-0.10;99.90;;;;;;5115327;28;20433;-80
2023/03/15 04:26:07;;;;;;;11.45;0.60;;;-0.10;99.90;;;;;;5097659;28;20122;-79
2023/03/15 04:28:33;;;;;;;12.90;1.08;;;-0.10;99.90;;;;;;5098443;28;20039;-79
2023/03/15 04:30:58;;;;;;;8.60;0.82;;;0.00;99.90;;;;;;5097469;28;20047;-79
2023/03/15 04:33:24;;;;;;;6.75;0.65;;;0.00;99.90;;;;;;5115775;28;20039;-79
2023/03/15 04:35:51;;;;;;;14.05;1.25;;;0.00;99.90;;;;;;5114812;28;20044;-79
2023/03/15 04:38:17;;;;;;;6.82;0.65;;;0.10;99.90;;;;;;5096554;28;20399;-79
2023/03/15 04:40:43;;;;;;;5.70;0.60;;;0.10;99.90;;;;;;5114970;28;20464;-80
2023/03/15 04:43:09;;;;;;;9.63;0.90;;;0.20;99.90;;;;;;5114904;28;20099;-79
2023/03/15 04:45:35;;;;;;;12.23;1.00;;;0.20;99.90;;;;;;5114716;28;20047;-81
2023/03/15 04:48:02;;;;;;;20.25;1.15;;;0.20;99.90;;;;;;5114860;28;20398;-80
2023/03/15 04:50:29;;;;;;;8.85;0.88;;;0.20;99.90;;;;;;5114643;28;20113;-79
2023/03/15 04:52:56;;;;;;;7.82;0.68;;;0.20;99.90;;;;;;5079619;28;20079;-80
2023/03/15 04:55:22;;;;;;;;;;;0.20;99.90;;;;;;5114995;28;20047;-80
2023/03/15 04:57:48;;;;;;;11.05;0.60;;;0.20;99.90;;;;;;5114599;28;19973;-80
2023/03/15 05:00:15;;;;;;;12.43;0.60;;;0.20;99.90;;;;;;5097029;28;20043;-79
2023/03/15 05:02:41;;;;;;;10.13;0.75;;;0.20;99.90;;;;;;5114824;28;20373;-80
2023/03/15 05:05:08;;;;;;;5.22;0.90;;;0.10;99.90;;;;;;5096683;28;20094;-81
2023/03/15 05:07:34;;;;;;;13.27;0.90;;;0.00;99.90;;;;;;5097112;28;20439;-81
2023/03/15 05:10:00;;;;;;;10.57;0.95;;;0.00;99.90;;;;;;5114767;28;20040;-80
2023/03/15 05:12:27;;;;;;;11.18;0.60;;;0.00;99.90;;;;;;5114429;28;20154;-80
2023/03/15 05:14:52;;;;;;;12.68;1.10;;;0.00;99.90;;;;;;5114203;28;20086;-80
2023/03/15 05:17:18;;;;;;;14.55;1.00;;;-0.10;99.90;;;;;;5096150;28;20075;-82
2023/03/15 05:19:44;;;;;;;9.80;1.00;;;-0.10;99.90;;;;;;5114070;28;20072;-81
2023/03/15 05:22:10;;;;;;;21.33;0.90;;;-0.10;99.90;;;;;;5113675;28;20126;-79
2023/03/15 05:24:36;;;;;;;10.88;0.95;;;-0.20;99.90;;;;;;5096029;28;20135;-80
2023/03/15 05:27:03;;;;;;;8.93;1.30;;;-0.20;99.90;;;;;;5096105;28;20122;-80
2023/03/15 05:29:29;;;;;;;13.82;1.25;;;-0.20;99.90;;;;;;5079194;28;20048;-79
2023/03/15 05:31:55;;;;;;;11.90;1.55;;;-0.20;99.90;;;;;;5095745;28;20059;-79
2023/03/15 05:34:23;;;;;;;11.95;1.25;;;-0.20;99.90;;;;;;5114173;28;20047;-79
2023/03/15 05:36:50;;;;;;;10.65;1.25;;;-0.20;99.90;;;;;;5095955;28;20122;-80
2023/03/15 05:39:16;;;;;;;10.63;1.00;;;-0.10;99.90;;;;;;5113853;28;20051;-79
2023/03/15 05:41:44;;;;;;;13.27;1.55;;;-0.10;99.90;;;;;;5095795;28;20395;-81
2023/03/15 05:44:09;;;;;;;20.98;1.92;;;0.00;99.90;;;;;;5113906;28;20127;-79
2023/03/15 05:46:35;;;;;;;16.77;1.45;;;0.00;99.90;;;;;;5095576;28;20047;-79
2023/03/15 05:49:01;;;;;;;13.77;1.20;;;0.10;99.90;;;;;;5113789;28;20515;-80
2023/03/15 05:51:27;;;;;;;9.13;1.05;;;0.20;99.90;;;;;;5096652;28;20050;-79
2023/03/15 05:53:53;;;;;;;11.75;1.00;;;0.30;99.90;;;;;;5095737;28;20043;-79
2023/03/15 05:56:18;;;;;;;12.70;1.00;;;0.30;99.90;;;;;;5095589;28;20480;-79
2023/03/15 05:58:44;;;;;;;8.07;0.90;;;0.30;99.90;;;;;;5095578;28;20044;-79
2023/03/15 06:01:10;;;;;;;12.57;1.10;;;0.30;99.90;;;;;;5095786;28;20130;-79
2023/03/15 06:03:35;;;;;;;14.93;1.35;;;0.30;99.90;;;;;;5096213;28;20047;-80
2023/03/15 06:06:02;;;;;;;13.52;1.30;;;0.30;99.90;;;;;;5113810;28;20063;-80
2023/03/15 06:08:28;;;;;;;18.73;2.33;;;0.30;99.90;;;;;;5096565;28;20051;-79
2023/03/15 06:10:53;;;;;;;16.77;0.90;;;0.30;99.90;;;;;;5113463;28;20115;-79
2023/03/15 06:13:19;;;;;;;17.40;1.55;;;0.30;99.90;;;;;;5113661;28;20047;-80
2023/03/15 06:15:48;;;;;;;11.95;0.90;;;0.30;99.90;;;;;;5113536;28;20127;-79
2023/03/15 06:18:16;;;;;;;12.00;1.35;;;0.30;99.90;;;;;;5095323;28;20035;-80
2023/03/15 06:20:42;;;;;;;13.43;1.05;;;0.40;99.90;;;;;;5095577;28;20047;-79
2023/03/15 06:23:08;;;;;;;10.85;1.15;;;0.40;99.90;;;;;;5113715;28;20044;-79
2023/03/15 06:25:34;;;;;;;15.23;1.50;;;0.50;99.90;;;;;;5079260;28;20104;-79
2023/03/15 06:28:00;;;;;;;15.35;1.27;;;0.50;99.90;;;;;;5113931;28;20048;-79
2023/03/15 06:30:26;;;;;;;16.00;1.00;;;0.60;99.90;;;;;;5112352;28;20078;-78
2023/03/15 06:32:52;;;;;;;12.53;1.47;;;0.60;99.90;;;;;;5095535;28;20116;-78
2023/03/15 06:35:18;;;;;;;8.05;0.70;;;0.60;99.90;;;;;;5117084;28;20296;-77
2023/03/15 06:37:44;;;;;;;9.48;1.10;;;0.70;99.90;;;;;;5118388;28;20040;-78
2023/03/15 06:40:11;;;;;;;15.50;1.77;;;0.70;99.90;;;;;;5083100;28;20100;-78
2023/03/15 06:42:38;;;;;;;20.73;2.33;;;0.70;99.90;;;;;;5099038;28;20047;-80
2023/03/15 06:45:04;;;;;;;;;;;0.70;99.90;;;;;;5099403;28;20058;-79
2023/03/15 06:47:30;;;;;;;19.50;0.90;;;0.80;99.90;;;;;;5099117;28;19920;-78
2023/03/15 06:49:56;;;;;;;10.35;0.77;;;0.90;99.90;;;;;;5117071;28;20051;-78
2023/03/15 06:52:22;;;;;;;12.32;0.90;;;0.80;99.90;;;;;;5098973;28;20047;-78
2023/03/15 06:54:48;;;;;;;10.05;0.70;;;0.90;99.90;;;;;;5066225;28;20079;-78
2023/03/15 06:57:14;;;;;;;14.95;0.98;;;1.00;99.90;;;;;;5098820;28;20198;-78
2023/03/15 06:59:40;;;;;;;14.50;0.90;;;1.00;99.90;;;;;;5082464;28;20056;-79
2023/03/15 07:02:12;;;;;;;15.93;1.33;;;1.00;99.90;;;;;;5100101;28;20085;-78
2023/03/15 07:04:38;;;;;;;15.50;1.15;;;0.90;99.90;;;;;;5116541;28;20054;-78
2023/03/15 07:07:03;;;;;;;13.60;1.02;;;0.90;99.90;;;;;;5118848;28;20048;-78
2023/03/15 07:09:29;;;;;;;17.20;1.05;;;0.90;99.90;;;;;;5117307;28;20048;-78
2023/03/15 07:11:55;;;;;;;7.68;0.98;;;1.00;99.90;;;;;;5117251;28;20047;-79
2023/03/15 07:14:21;;;;;;;19.55;1.80;;;1.00;99.90;;;;;;5117663;28;20407;-78
2023/03/15 07:16:47;;;;;;;20.17;1.42;;;1.10;99.90;;;;;;5117676;28;20043;-78
2023/03/15 07:19:13;;;;;;;20.27;1.00;;;1.10;99.90;;;;;;5117697;28;20055;-78
2023/03/15 07:21:39;;;;;;;13.50;1.10;;;1.10;99.90;;;;;;5117072;28;20479;-77
2023/03/15 07:24:05;;;;;;;12.65;1.80;;;1.20;99.90;;;;;;5101148;28;20050;-76
2023/03/15 07:26:31;;;;;;;12.80;1.00;;;1.40;99.90;;;;;;5119828;28;20040;-77
2023/03/15 07:28:56;;;;;;;11.88;0.98;;;1.50;99.90;;;;;;5101264;28;20491;-78
2023/03/15 07:31:22;;;;;;;11.45;1.33;;;1.50;99.90;;;;;;5118521;28;20048;-76
2023/03/15 07:33:48;;;;;;;10.10;1.45;;;1.50;99.90;;;;;;5082828;28;20050;-79
2023/03/15 07:36:14;;;;;;;19.23;1.55;;;1.70;99.90;;;;;;5098875;28;20051;-76
2023/03/15 07:38:40;;;;;;;12.57;1.08;;;1.80;99.90;;;;;;5117331;28;20468;-78
2023/03/15 07:41:06;;;;;;;19.23;1.40;;;1.90;99.90;;;;;;5117364;28;20082;-77
2023/03/15 07:43:33;;;;;;;7.32;0.93;;;2.00;99.90;;;;;;5118195;28;20419;-79
2023/03/15 07:46:00;;;;;;;15.48;1.08;;;2.00;99.90;;;;;;5115893;28;20116;-79
2023/03/15 07:48:28;;;;;;;12.70;1.50;;;2.20;99.90;;;;;;5116877;28;20130;-76
2023/03/15 07:50:54;;;;;;;13.85;0.85;;;2.30;99.90;;;;;;5098030;28;20050;-77
2023/03/15 07:53:20;;;;;;;12.65;1.13;;;2.40;99.90;;;;;;5098124;28;20052;-78
2023/03/15 07:55:47;;;;;;;18.15;1.63;;;2.60;99.90;;;;;;5097762;28;20055;-77
2023/03/15 07:58:13;;;;;;;7.68;0.95;;;2.70;99.90;;;;;;5098183;28;20067;-78
2023/03/15 08:00:39;;;;;;;13.65;1.05;;;2.80;99.90;;;;;;5115595;28;20036;-78
2023/03/15 08:03:06;;;;;;;20.67;1.13;;;2.90;99.90;;;;;;5096919;28;20075;-76
2023/03/15 08:05:32;;;;;;;18.58;0.90;;;3.00;99.90;;;;;;5080504;28;20043;-77
2023/03/15 08:07:58;;;;;;;20.67;1.35;;;3.10;99.90;;;;;;5080175;28;20126;-79
2023/03/15 08:10:24;;;;;;;16.00;1.05;;;3.30;99.90;;;;;;5115650;28;20075;-78
2023/03/15 08:12:50;;;;;;;16.38;0.95;;;3.40;99.90;;;;;;5080844;28;20450;-79
2023/03/15 08:15:16;;;;;;;21.42;0.90;;;3.50;99.90;;;;;;5097034;28;20131;-77
2023/03/15 08:17:42;;;;;;;14.43;1.15;;;3.60;99.90;;;;;;5097662;28;20043;-78
2023/03/15 08:20:10;;;;;;;17.40;1.40;;;3.70;99.90;;;;;;5114309;28;20103;-76
2023/03/15 08:22:43;;;;;;;10.65;0.70;;;3.80;99.90;;;;;;5115259;28;20123;-77
2023/03/15 08:25:11;;;;;;;14.75;0.93;;;4.00;99.90;;;;;;5115929;28;20044;-76
2023/03/15 08:27:37;;;;;;;12.98;1.10;;;3.90;99.90;;;;;;5113941;28;20089;-75
2023/03/15 08:30:04;;;;;;;16.42;1.33;;;4.10;99.90;;;;;;5080027;28;20044;-78
2023/03/15 08:32:31;;;;;;;13.20;0.82;;;4.20;99.90;;;;;;5113612;28;20051;-77
2023/03/15 08:34:57;;;;;;;18.48;1.10;;;4.30;99.90;;;;;;5097231;28;20063;-77
2023/03/15 08:37:22;;;;;;;16.63;1.10;;;4.30;99.90;;;;;;5079989;28;20047;-75
2023/03/15 08:39:48;;;;;;;14.52;0.73;;;4.40;99.90;;;;;;5096839;28;20044;-76
2023/03/15 08:42:14;;;;;;;8.88;0.77;;;4.40;99.90;;;;;;5096629;28;20098;-79
2023/03/15 08:44:40;;;;;;;12.35;1.00;;;4.40;99.90;;;;;;5096522;28;20054;-76
2023/03/15 08:47:06;;;;;;;30.30;1.35;;;4.40;99.90;;;;;;5080439;28;20070;-76
2023/03/15 08:49:32;;;;;;;22.23;1.20;;;4.50;99.90;;;;;;5080005;28;20050;-77
2023/03/15 08:51:58;;;;;;;29.50;1.98;;;4.60;99.90;;;;;;5115056;28;20043;-77
2023/03/15 08:54:26;;;;;;;24.05;1.90;;;4.70;99.90;;;;;;5096526;28;20476;-79
2023/03/15 08:56:51;;;;;;;18.02;1.85;;;4.90;99.90;;;;;;5097156;28;20063;-76
2023/03/15 08:59:17;;;;;;;18.10;1.10;;;5.20;99.90;;;;;;5114774;28;20043;-78
2023/03/15 09:01:43;;;;;;;19.05;1.65;;;5.40;99.90;;;;;;5096876;28;20048;-76
2023/03/15 09:04:09;;;;;;;18.08;1.02;;;5.50;99.90;;;;;;5115080;28;20460;-75
2023/03/15 09:06:36;;;;;;;19.60;0.90;;;5.50;99.90;;;;;;5079614;28;20047;-78
2023/03/15 09:09:02;;;;;;;25.10;1.35;;;5.50;99.90;;;;;;5115022;28;20048;-76
2023/03/15 09:11:28;;;;;;;15.23;1.75;;;5.50;99.90;;;;;;5096269;28;20096;-76
2023/03/15 09:13:53;;;;;;;13.18;0.80;;;5.40;99.90;;;;;;5116038;28;20043;-76
2023/03/15 09:16:19;;;;;;;9.15;0.80;;;5.40;99.90;;;;;;5114364;28;20039;-76
2023/03/15 09:18:45;;;;;;;15.43;0.93;;;5.30;99.90;;;;;;5115224;28;20054;-76
2023/03/15 09:21:11;;;;;;;16.23;0.77;;;5.40;99.90;;;;;;5114551;28;20040;-76
2023/03/15 09:23:36;;;;;;;15.30;1.13;;;5.40;99.90;;;;;;5114764;28;20048;-77
2023/03/15 09:26:02;;;;;;;11.65;1.20;;;5.50;99.90;;;;;;5115286;28;20051;-76
2023/03/15 09:28:28;;;;;;;10.25;0.45;;;5.50;99.90;;;;;;5114825;28;20066;-77
2023/03/15 09:30:54;;;;;;;11.70;0.88;;;5.50;99.90;;;;;;5115553;28;20043;-76
2023/03/15 09:33:21;;;;;;;7.93;1.08;;;5.40;99.90;;;;;;5097004;28;20047;-76
2023/03/15 09:35:50;;;;;;;16.95;2.30;;;5.40;99.90;;;;;;5115411;28;20124;-77
2023/03/15 09:38:16;;;;;;;11.60;0.60;;;5.50;99.90;;;;;;5114747;28;20052;-75
2023/03/15 09:40:46;;;;;;;11.77;0.50;;;5.50;99.90;;;;;;5096221;28;20051;-78
2023/03/15 09:43:20;;;;;;;8.27;0.70;;;5.50;99.90;;;;;;5095985;28;20096;-78
2023/03/15 09:46:18;;;;;;;11.00;0.50;;;5.50;99.90;;;;;;5079393;28;20083;-75
2023/03/15 09:48:59;;;;;;;10.50;0.88;;;5.60;99.90;;;;;;5095386;28;20054;-79
2023/03/15 09:51:49;;;;;;;12.02;0.50;;;5.70;99.90;;;;;;5114083;28;20066;-78
2023/03/15 09:54:47;;;;;;;12.68;1.20;;;5.70;99.90;;;;;;5113743;28;20123;-75
2023/03/15 09:57:21;;;;;;;16.10;1.00;;;5.70;99.90;;;;;;5110496;28;20052;-77
2023/03/15 09:59:51;;;;;;;10.82;0.77;;;5.80;99.90;;;;;;5079077;28;20047;-78
2023/03/15 10:02:27;;;;;;;16.52;0.70;;;5.80;99.90;;;;;;5095321;28;20126;-77
2023/03/15 10:05:18;;;;;;;13.88;0.90;;;5.80;99.90;;;;;;5114722;28;20105;-77
2023/03/15 10:07:45;;;;;;;11.25;1.02;;;6.00;99.90;;;;;;5092168;28;20052;-78
2023/03/15 10:10:29;;;;;;;14.45;0.70;;;6.10;99.90;;;;;;5096828;28;20406;-76
2023/03/15 10:13:20;;;;;;;14.50;0.60;;;6.20;99.90;;;;;;5097119;28;20127;-76
2023/03/15 10:15:52;;;;;;;14.82;0.75;;;6.10;99.90;;;;;;5086444;28;20052;-77
2023/03/15 10:18:41;;;;;;;19.52;1.15;;;6.20;99.90;;;;;;5097213;28;20046;-77
2023/03/15 10:21:16;;;;;;;13.73;0.80;;;6.30;99.90;;;;;;5097823;28;20365;-77
2023/03/15 10:23:49;;;;;;;15.55;1.70;;;6.50;99.90;;;;;;5097273;28;20161;-75
2023/03/15 10:26:19;;;;;;;12.38;1.00;;;6.60;99.90;;;;;;5097345;28;20051;-77
2023/03/15 10:28:45;;;;;;;10.43;0.98;;;6.70;99.90;;;;;;5079248;28;20047;-77
2023/03/15 10:31:20;;;;;;;11.65;0.88;;;6.60;99.90;;;;;;5095751;28;20434;-78
2023/03/15 10:33:47;;;;;;;14.02;1.25;;;6.70;99.90;;;;;;5096020;28;20048;-77
2023/03/15 10:36:19;;;;;;;10.70;1.00;;;6.80;99.90;;;;;;5095921;28;20047;-77
2023/03/15 10:38:47;;;;;;;8.60;1.00;;;6.70;99.90;;;;;;5096815;28;20052;-76
2023/03/15 10:41:26;;;;;;;15.38;1.27;;;6.90;99.90;;;;;;5096867;28;20044;-75
2023/03/15 10:44:02;;;;;;;6.03;0.75;;;7.10;99.90;;;;;;5113035;28;20105;-76
2023/03/15 10:46:27;;;;;;;8.73;0.70;;;7.00;99.90;;;;;;5095642;28;20059;-76
2023/03/15 10:49:08;;;;;;;7.03;1.20;;;6.90;99.90;;;;;;5097307;28;20380;-77
2023/03/15 10:51:47;;;;;;;11.75;0.68;;;6.90;99.40;;;;;;5096494;28;20044;-75
2023/03/15 10:54:17;;;;;;;12.10;0.90;;;7.00;99.90;;;;;;5096488;28;20087;-75
2023/03/15 10:57:01;;;;;;;10.77;0.63;;;7.20;99.90;;;;;;5096459;28;20092;-77
2023/03/15 10:59:32;;;;;;;10.05;1.33;;;7.20;99.90;;;;;;5094941;28;20047;-74
2023/03/15 11:02:10;;;;;;;8.40;0.88;;;7.30;99.90;;;;;;5097158;28;20063;-75
2023/03/15 11:04:46;;;;;;;9.40;0.70;;;7.30;99.90;;;;;;5095982;28;20048;-76
2023/03/15 11:07:12;;;;;;;9.10;0.50;;;7.30;99.90;;;;;;5111237;28;20051;-75
2023/03/15 11:09:44;;;;;;;11.05;0.98;;;7.40;99.90;;;;;;5098351;28;20054;-76
2023/03/15 11:12:23;;;;;;;14.90;0.60;;;7.40;99.90;;;;;;5098573;28;20039;-77
2023/03/15 11:14:51;;;;;;;7.20;0.40;;;7.50;99.90;;;;;;5099237;28;20368;-76
2023/03/15 11:17:24;;;;;;;10.50;0.70;;;7.60;99.90;;;;;;5116477;28;20043;-76
2023/03/15 11:19:59;;;;;;;8.50;0.70;;;7.70;99.90;;;;;;5097730;28;20460;-75
2023/03/15 11:22:25;;;;;;;12.23;0.77;;;7.70;99.20;;;;;;5099032;28;20412;-75
2023/03/15 11:24:57;;;;;;;8.57;0.50;;;7.90;99.90;;;;;;5081431;28;20047;-76
2023/03/15 11:27:23;;;;;;;6.93;1.10;;;7.80;99.90;;;;;;5117226;28;20127;-75
2023/03/15 11:29:55;;;;;;;8.27;0.50;;;8.00;99.90;;;;;;5116205;28;20040;-76
2023/03/15 11:32:27;;;;;;;11.07;0.85;;;7.80;98.10;;;;;;5098263;28;20051;-76
2023/03/15 11:35:00;;;;;;;12.40;0.70;;;7.70;98.30;;;;;;5098523;28;20046;-75
2023/03/15 11:37:56;;;;;;;10.77;1.00;;;7.80;98.30;;;;;;5116074;28;20483;-77
2023/03/15 11:40:28;;;;;;;12.73;1.10;;;7.90;98.40;;;;;;5115341;28;20051;-75
2023/03/15 11:43:05;;;;;;;9.07;0.88;;;7.90;97.20;;;;;;5081108;28;20044;-76
2023/03/15 11:45:52;;;;;;;8.98;0.70;;;7.90;97.40;;;;;;5098393;28;20497;-76
2023/03/15 11:48:30;;;;;;;7.32;0.40;;;7.80;96.30;;;;;;5098639;28;20105;-77
2023/03/15 11:50:58;;;;;;;8.13;0.68;;;7.80;98.70;;;;;;5098268;28;20067;-76
2023/03/15 11:53:31;;;;;;;15.20;1.20;;;7.80;98.50;;;;;;5097790;28;20391;-75
2023/03/15 11:56:27;;;;;;;9.55;0.90;;;7.90;99.10;;;;;;5116355;28;20047;-76
2023/03/15 11:59:12;;;;;;;5.43;2.00;;;7.90;97.10;;;;;;5115719;28;20051;-74
2023/03/15 12:01:44;;;;;;;8.30;0.65;;;8.00;96.70;;;;;;5097746;28;20528;-75
2023/03/15 12:04:27;;;;;;;11.90;1.15;;;7.90;95.20;;;;;;5116502;28;20418;-75
2023/03/15 12:06:55;;;;;;;7.70;0.57;;;8.20;98.50;;;;;;5115632;28;20131;-75
2023/03/15 12:09:36;;;;;;;8.32;0.50;;;8.20;96.20;;;;;;5098386;28;20447;-77
2023/03/15 12:12:25;;;;;;;11.38;1.35;;;8.10;94.50;;;;;;5098319;28;20044;-77
2023/03/15 12:15:12;;;;;;;7.25;0.70;;;8.20;94.90;;;;;;5115367;28;20482;-76
2023/03/15 12:17:49;;;;;;;12.40;0.82;;;8.10;95.10;;;;;;5097138;28;20040;-75
2023/03/15 12:20:17;;;;;;;9.88;0.63;;;8.10;95.10;;;;;;5115537;28;20086;-75
2023/03/15 12:22:52;;;;;;;7.35;0.50;;;8.10;96.50;;;;;;5115185;28;20399;-76
2023/03/15 12:25:29;;;;;;;5.88;0.57;;;8.10;96.70;;;;;;5079972;28;20406;-75
2023/03/15 12:27:56;;;;;;;;;;;8.10;95.10;;;;;;5098354;28;20103;-75
2023/03/15 12:30:32;;;;;;;10.82;0.80;;;7.90;92.10;;;;;;5097863;28;19920;-76
2023/03/15 12:33:00;;;;;;;5.60;0.60;;;7.90;93.40;;;;;;5113578;28;20407;-75
2023/03/15 12:35:40;;;;;;;4.20;0.50;;;8.10;94.00;;;;;;5114758;28;20514;-74
2023/03/15 12:38:16;;;;;;;12.00;0.70;;;8.20;94.80;;;;;;5114752;28;20050;-77
2023/03/15 12:40:53;;;;;;;9.20;0.77;;;8.40;94.00;;;;;;5114757;28;20047;-75
2023/03/15 12:44:14;;;;;;;7.95;0.50;;;8.20;93.60;;;;;;5096732;28;20289;-76
2023/03/15 12:46:43;;;;;;;5.30;0.43;;;8.40;95.00;;;;;;5031731;28;20050;-76
2023/03/15 12:49:27;;;;;;;7.82;0.50;;;8.60;95.30;;;;;;5110946;28;20059;-76
2023/03/15 12:51:57;;;;;;;7.53;0.50;;;8.60;94.90;;;;;;5096503;28;20050;-75
2023/03/15 12:54:29;;;;;;;6.72;0.40;;;8.70;95.80;;;;;;5079705;28;20097;-75
2023/03/15 12:57:03;;;;;;;6.68;0.70;;;8.70;96.20;;;;;;5096564;28;20480;-76
2023/03/15 12:59:41;;;;;;;6.15;0.35;;;8.60;94.30;;;;;;5096576;28;20043;-75
2023/03/15 13:02:35;;;;;;;12.30;1.83;;;8.60;93.90;;;;;;5080361;28;20065;-75